Time;durP1;ratioP1;P1;durP2;ratioP2;P2;SDS_P1;SDS_P2;PMS_P1;PMS_P2;Temp;Humidity;BMP_temperature;BMP_pressure;BME280_temperature;BME280_humidity;BME280_pressure;Samples;Min_cycle;Max_cycle;Signal;HPM_P1;HPM_P2
2023/12/11 00:00:11;;;;;;;29.20;11.50;;;;;;;-0.42;94.56;100697.49;126647;1086;104213;-74
2023/12/11 00:03:00;;;;;;;27.67;11.43;;;;;;;-0.48;95.01;100695.33;126377;1086;104231;-74
2023/12/11 00:05:29;;;;;;;29.50;11.67;;;;;;;-0.52;94.62;100693.27;126651;1086;104162;-74
2023/12/11 00:07:57;;;;;;;28.93;11.10;;;;;;;-0.57;94.43;100692.88;126233;1086;104293;-74
2023/12/11 00:10:26;;;;;;;26.33;10.90;;;;;;;-0.63;94.83;100705.26;126217;1089;101926;-74
2023/12/11 00:12:55;;;;;;;31.55;11.95;;;;;;;-0.63;95.10;100701.79;126676;1086;104085;-74
2023/12/11 00:15:24;;;;;;;28.93;12.17;;;;;;;-0.62;94.69;100699.34;126602;1085;104232;-74
2023/12/11 00:17:53;;;;;;;32.87;12.70;;;;;;;-0.61;94.65;100702.80;126305;1086;104165;-74
2023/12/11 00:20:22;;;;;;;30.37;11.80;;;;;;;-0.57;95.25;100697.14;126684;1086;104325;-74
2023/12/11 00:22:51;;;;;;;33.17;12.13;;;;;;;-0.55;94.95;100693.94;126617;1086;104231;-74
2023/12/11 00:25:20;;;;;;;33.10;11.13;;;;;;;-0.53;95.33;100694.06;126635;1086;101840;-74
2023/12/11 00:27:49;;;;;;;31.23;12.43;;;;;;;-0.51;95.15;100691.58;126624;1086;104200;-74
2023/12/11 00:30:18;;;;;;;32.83;12.07;;;;;;;-0.49;95.05;100697.78;126366;1086;104165;-74
2023/12/11 00:32:47;;;;;;;35.47;11.97;;;;;;;-0.46;95.61;100698.92;126355;1086;104305;-74
2023/12/11 00:35:16;;;;;;;30.63;11.57;;;;;;;-0.47;95.36;100699.69;126421;1086;101853;-74
2023/12/11 00:37:45;;;;;;;30.57;11.93;;;;;;;-0.45;95.71;100700.74;126747;1086;104293;-74
2023/12/11 00:40:14;;;;;;;32.60;11.97;;;;;;;-0.41;95.89;100699.30;126755;1086;103377;-74
2023/12/11 00:42:43;;;;;;;30.70;11.57;;;;;;;-0.39;95.37;100702.91;126798;1086;101900;-74
2023/12/11 00:45:13;;;;;;;29.20;12.07;;;;;;;-0.40;95.15;100703.70;126803;1086;101973;-74
2023/12/11 00:47:42;;;;;;;29.03;11.50;;;;;;;-0.41;95.58;100702.77;126330;1086;104237;-74
2023/12/11 00:50:11;;;;;;;29.33;11.07;;;;;;;-0.41;95.70;100704.46;126760;1086;104180;-74
2023/12/11 00:52:40;;;;;;;28.17;11.10;;;;;;;-0.38;95.77;100708.19;126722;1085;102052;-74
2023/12/11 00:55:10;;;;;;;28.40;11.10;;;;;;;-0.36;95.27;100700.58;126878;1086;101864;-74
2023/12/11 00:57:39;;;;;;;30.25;11.10;;;;;;;-0.35;95.49;100704.08;126804;1086;104168;-74
2023/12/11 01:00:10;;;;;;;27.47;11.27;;;;;;;-0.34;95.56;100700.70;126719;1086;104231;-74
2023/12/11 01:02:41;;;;;;;31.47;11.63;;;;;;;-0.34;95.68;100703.28;126692;1086;104162;-74
2023/12/11 01:05:10;;;;;;;29.00;10.40;;;;;;;-0.37;95.40;100696.22;126434;1086;102040;-74
2023/12/11 01:07:39;;;;;;;25.70;9.80;;;;;;;-0.34;96.08;100700.70;126777;1086;101797;-74
2023/12/11 01:10:10;;;;;;;29.73;11.47;;;;;;;-0.31;96.07;100691.56;126630;1086;104264;-74
2023/12/11 01:12:39;;;;;;;31.17;13.13;;;;;;;-0.30;95.37;100690.77;126383;1086;101874;-74
2023/12/11 01:15:09;;;;;;;31.03;13.03;;;;;;;-0.41;94.89;100684.73;126358;1086;104210;-74
2023/12/11 01:17:38;;;;;;;32.83;12.63;;;;;;;-0.50;94.68;100678.81;126371;1090;101890;-74
2023/12/11 01:20:09;;;;;;;31.67;13.23;;;;;;;-0.54;94.95;100669.05;126346;1089;104228;-75
2023/12/11 01:22:38;;;;;;;34.10;13.40;;;;;;;-0.55;95.62;100660.42;126291;1087;101830;-74
2023/12/11 01:25:08;;;;;;;32.47;12.37;;;;;;;-0.58;94.87;100648.94;126530;1086;102199;-75
2023/12/11 01:27:37;;;;;;;29.53;11.73;;;;;;;-0.63;94.88;100660.55;126716;1086;104277;-74
2023/12/11 01:30:08;;;;;;;32.50;11.53;;;;;;;-0.63;95.06;100663.13;126693;1086;104207;-73
2023/12/11 01:32:37;;;;;;;30.77;11.93;;;;;;;-0.61;95.29;100652.19;126644;1086;104261;-74
2023/12/11 01:35:07;;;;;;;29.30;12.33;;;;;;;-0.61;95.71;100638.38;126290;1086;104226;-74
2023/12/11 01:37:36;;;;;;;29.33;11.67;;;;;;;-0.60;95.38;100630.77;126669;1086;104055;-74
2023/12/11 01:40:08;;;;;;;28.33;11.03;;;;;;;-0.55;95.56;100636.30;126596;1086;104258;-74
2023/12/11 01:42:37;;;;;;;28.70;12.23;;;;;;;-0.54;96.12;100632.95;126744;1086;101969;-74
2023/12/11 01:45:08;;;;;;;32.10;12.57;;;;;;;-0.51;95.70;100635.78;126793;1086;104235;-73
2023/12/11 01:47:37;;;;;;;32.73;13.37;;;;;;;-0.49;95.56;100634.22;126676;1085;104257;-74
2023/12/11 01:50:09;;;;;;;31.20;12.97;;;;;;;-0.49;96.05;100633.33;126630;1086;104231;-74
2023/12/11 01:52:38;;;;;;;31.57;12.13;;;;;;;-0.52;95.54;100643.39;126657;1086;104059;-74
2023/12/11 01:55:09;;;;;;;30.40;12.87;;;;;;;-0.51;95.49;100642.59;126667;1086;104162;-74
2023/12/11 01:57:38;;;;;;;32.03;13.13;;;;;;;-0.52;95.99;100639.12;126395;1086;104178;-74
2023/12/11 02:00:10;;;;;;;32.73;13.93;;;;;;;-0.50;95.47;100636.67;126706;1086;104261;-74
2023/12/11 02:02:40;;;;;;;31.03;12.77;;;;;;;-0.45;96.19;100632.78;126388;1086;102386;-74
2023/12/11 02:05:09;;;;;;;30.17;12.00;;;;;;;-0.42;96.41;100636.54;126481;1086;104184;-74
2023/12/11 02:07:39;;;;;;;32.70;12.93;;;;;;;-0.39;95.98;100631.62;126406;1086;104337;-74
2023/12/11 02:10:10;;;;;;;30.60;12.50;;;;;;;-0.35;96.02;100639.62;126739;1086;104616;-74
2023/12/11 02:12:39;;;;;;;34.50;13.27;;;;;;;-0.32;96.42;100639.87;126725;1086;101983;-74
2023/12/11 02:15:09;;;;;;;30.97;12.10;;;;;;;-0.30;95.93;100627.98;126531;1086;104178;-74
2023/12/11 02:17:38;;;;;;;32.80;13.13;;;;;;;-0.27;95.98;100626.55;126691;1086;104162;-74
2023/12/11 02:20:09;;;;;;;28.73;11.63;;;;;;;-0.24;96.39;100625.91;126796;1086;102005;-73
2023/12/11 02:22:38;;;;;;;29.00;11.57;;;;;;;-0.22;95.88;100624.34;126766;1086;104185;-74
2023/12/11 02:25:08;;;;;;;28.23;11.77;;;;;;;-0.19;95.84;100619.42;126694;1086;104312;-74
2023/12/11 02:27:37;;;;;;;27.60;10.93;;;;;;;-0.18;95.88;100618.66;126799;1086;104213;-74
2023/12/11 02:30:08;;;;;;;27.63;11.23;;;;;;;-0.17;96.47;100611.81;126781;1086;104213;-73
2023/12/11 02:32:37;;;;;;;28.80;11.00;;;;;;;-0.16;95.90;100604.20;126730;1086;104270;-74
2023/12/11 02:35:07;;;;;;;29.87;11.33;;;;;;;-0.12;95.83;100614.00;126726;1086;104197;-73
2023/12/11 02:37:36;;;;;;;30.13;12.20;;;;;;;-0.09;96.11;100611.66;126730;1086;104181;-73
2023/12/11 02:40:08;;;;;;;31.73;12.40;;;;;;;-0.10;95.69;100609.84;126657;1086;101800;-73
2023/12/11 02:42:37;;;;;;;32.70;12.13;;;;;;;-0.13;95.72;100613.87;126723;1086;104363;-73
2023/12/11 02:45:08;;;;;;;27.47;10.60;;;;;;;-0.17;95.82;100623.05;126750;1086;103588;-73
2023/12/11 02:47:37;;;;;;;25.37;10.07;;;;;;;-0.17;95.71;100629.87;126873;1086;104172;-73
2023/12/11 02:50:08;;;;;;;25.40;9.83;;;;;;;-0.17;95.62;100635.95;126424;1086;102200;-73
2023/12/11 02:52:36;;;;;;;23.37;9.77;;;;;;;-0.15;96.29;100624.06;126431;1086;101893;-73
2023/12/11 02:55:07;;;;;;;24.53;9.53;;;;;;;-0.14;96.06;100625.88;126748;1086;104194;-73
2023/12/11 02:57:36;;;;;;;25.90;11.00;;;;;;;-0.11;96.03;100618.39;126824;1086;104162;-73
2023/12/11 03:00:08;;;;;;;26.97;11.13;;;;;;;-0.11;96.15;100620.97;126759;1086;104158;-73
2023/12/11 03:02:38;;;;;;;27.20;10.67;;;;;;;-0.10;96.03;100624.44;126399;1086;102333;-73
2023/12/11 03:05:08;;;;;;;24.77;9.37;;;;;;;-0.11;96.03;100625.20;126859;1086;104724;-73
2023/12/11 03:07:37;;;;;;;21.73;8.77;;;;;;;-0.13;96.26;100619.92;126847;1086;102469;-73
2023/12/11 03:10:08;;;;;;;22.37;8.40;;;;;;;-0.16;96.07;100618.78;126813;1086;104158;-73
2023/12/11 03:12:37;;;;;;;23.03;9.03;;;;;;;-0.16;95.62;100624.83;126947;1086;101826;-73
2023/12/11 03:15:08;;;;;;;22.77;9.00;;;;;;;-0.14;95.81;100624.95;126768;1086;101837;-73
2023/12/11 03:17:37;;;;;;;23.20;8.23;;;;;;;-0.13;95.65;100613.87;126777;1086;102188;-73
2023/12/11 03:20:12;;;;;;;22.60;7.97;;;;;;;-0.15;95.62;100608.59;126798;1086;104162;-73
2023/12/11 03:22:41;;;;;;;22.13;8.43;;;;;;;-0.20;96.30;100607.33;126951;1086;102077;-73
2023/12/11 03:25:10;;;;;;;19.80;7.50;;;;;;;-0.20;95.89;100605.64;126863;1086;102166;-73
2023/12/11 03:27:39;;;;;;;21.90;7.80;;;;;;;-0.20;96.42;100610.80;126859;1086;104337;-73
2023/12/11 03:30:10;;;;;;;20.90;8.10;;;;;;;-0.25;95.41;100599.22;126672;1086;104172;-72
2023/12/11 03:32:38;;;;;;;16.97;6.77;;;;;;;-0.26;96.21;100594.83;126811;1086;101864;-72
2023/12/11 03:35:09;;;;;;;16.47;6.00;;;;;;;-0.29;95.91;100599.74;126625;1086;104206;-72
2023/12/11 03:37:38;;;;;;;16.57;6.10;;;;;;;-0.38;95.58;100596.42;126708;1086;101796;-72
2023/12/11 03:40:09;;;;;;;17.27;5.87;;;;;;;-0.43;95.26;100601.20;126523;1086;104255;-72
2023/12/11 03:42:38;;;;;;;18.10;7.03;;;;;;;-0.44;95.41;100601.97;126624;1086;104060;-72
2023/12/11 03:45:08;;;;;;;18.53;6.80;;;;;;;-0.45;95.24;100610.50;126730;1086;104210;-72
2023/12/11 03:47:37;;;;;;;19.57;7.93;;;;;;;-0.42;95.62;100608.17;126685;1086;104159;-73
2023/12/11 03:50:08;;;;;;;18.63;6.70;;;;;;;-0.37;95.80;100609.44;126686;1086;102105;-73
2023/12/11 03:52:36;;;;;;;19.87;6.83;;;;;;;-0.32;95.95;100617.55;126772;1086;102035;-73
2023/12/11 03:55:08;;;;;;;16.83;6.63;;;;;;;-0.29;96.04;100611.75;126750;1086;101807;-72
2023/12/11 03:57:36;;;;;;;17.00;6.63;;;;;;;-0.28;96.19;100616.11;126707;1086;104197;-72
2023/12/11 04:00:08;;;;;;;18.93;7.03;;;;;;;-0.28;95.62;100616.11;126672;1086;104185;-73
2023/12/11 04:02:37;;;;;;;15.03;6.30;;;;;;;-0.27;95.69;100611.07;126427;1086;104187;-72
2023/12/11 04:05:08;;;;;;;17.87;6.53;;;;;;;-0.26;96.02;100615.46;126340;1086;102462;-73
2023/12/11 04:07:37;;;;;;;15.07;6.10;;;;;;;-0.26;96.38;100618.05;126318;1086;104200;-72
2023/12/11 04:10:08;;;;;;;17.40;7.40;;;;;;;-0.23;96.33;100617.41;126303;1086;104229;-73
2023/12/11 04:12:37;;;;;;;17.70;6.30;;;;;;;-0.19;96.59;100617.77;126390;1086;102109;-73
2023/12/11 04:15:08;;;;;;;17.97;6.37;;;;;;;-0.16;95.80;100619.67;126362;1086;104219;-73
2023/12/11 04:17:37;;;;;;;16.53;6.23;;;;;;;-0.16;95.97;100614.52;126359;1086;104181;-72
2023/12/11 04:20:07;;;;;;;16.37;7.03;;;;;;;-0.13;95.78;100611.30;126292;1086;101960;-73
2023/12/11 04:22:36;;;;;;;17.33;6.77;;;;;;;-0.11;96.01;100613.23;126272;1086;104248;-73
2023/12/11 04:25:07;;;;;;;16.27;6.37;;;;;;;-0.10;96.13;100612.42;126299;1086;102256;-73
2023/12/11 04:27:36;;;;;;;18.47;7.83;;;;;;;-0.07;96.23;100616.94;126304;1090;104258;-73
2023/12/11 04:30:07;;;;;;;20.10;7.67;;;;;;;-0.06;95.69;100614.48;126227;1086;104171;-72
2023/12/11 04:32:36;;;;;;;17.33;6.83;;;;;;;-0.07;95.83;100615.25;126421;1086;101896;-72
2023/12/11 04:35:07;;;;;;;16.60;6.50;;;;;;;-0.09;95.98;100610.77;126065;1086;101886;-73
2023/12/11 04:37:35;;;;;;;15.90;6.10;;;;;;;-0.11;95.73;100610.65;126190;1086;104258;-72
2023/12/11 04:40:07;;;;;;;17.70;6.60;;;;;;;-0.13;95.52;100599.28;126446;1086;104302;-73
2023/12/11 04:42:36;;;;;;;16.43;6.10;;;;;;;-0.12;95.69;100592.47;126127;1086;104439;-72
2023/12/11 04:45:07;;;;;;;15.77;6.27;;;;;;;-0.15;95.80;100594.80;126030;1086;104186;-72
2023/12/11 04:47:36;;;;;;;16.70;6.57;;;;;;;-0.18;95.53;100590.29;126311;1086;101851;-72
2023/12/11 04:50:06;;;;;;;18.00;6.87;;;;;;;-0.22;95.77;100599.47;126173;1086;101919;-72
2023/12/11 04:52:35;;;;;;;19.43;7.90;;;;;;;-0.21;95.34;100598.67;126220;1086;104165;-73
2023/12/11 04:55:05;;;;;;;19.73;7.33;;;;;;;-0.19;95.50;100588.48;126121;1086;102007;-72
2023/12/11 04:57:34;;;;;;;18.00;7.37;;;;;;;-0.19;95.76;100594.56;126130;1086;104178;-72
2023/12/11 05:00:04;;;;;;;21.10;8.50;;;;;;;-0.17;95.82;100592.10;126571;1086;104309;-72
2023/12/11 05:02:33;;;;;;;18.87;8.10;;;;;;;-0.18;95.39;100592.87;126552;1086;104186;-72
2023/12/11 05:05:02;;;;;;;19.40;7.90;;;;;;;-0.22;95.14;100589.16;126570;1086;104210;-72
2023/12/11 05:07:31;;;;;;;18.07;7.40;;;;;;;-0.24;95.70;100600.11;126539;1086;104177;-72
2023/12/11 05:10:00;;;;;;;18.27;7.53;;;;;;;-0.30;95.65;100590.20;126442;1086;101809;-72
2023/12/11 05:12:29;;;;;;;18.67;7.30;;;;;;;-0.35;95.57;100575.16;126520;1086;104301;-72
2023/12/11 05:14:59;;;;;;;18.03;7.30;;;;;;;-0.40;94.99;100585.98;126144;1086;104168;-72
2023/12/11 05:17:28;;;;;;;16.40;7.17;;;;;;;-0.39;95.42;100586.88;126262;1086;101813;-72
2023/12/11 05:19:57;;;;;;;21.43;8.33;;;;;;;-0.39;95.43;100595.53;126646;1086;104237;-72
2023/12/11 05:22:26;;;;;;;19.77;8.23;;;;;;;-0.39;95.19;100603.27;126563;1086;104258;-72
2023/12/11 05:24:55;;;;;;;16.05;7.00;;;;;;;-0.38;95.80;100605.05;126586;1086;102302;-72
2023/12/11 05:27:24;;;;;;;18.07;7.23;;;;;;;-0.43;95.33;100608.94;126629;1086;104204;-72
2023/12/11 05:29:53;;;;;;;17.00;7.13;;;;;;;-0.44;95.12;100604.55;126555;1086;102055;-72
2023/12/11 05:32:22;;;;;;;20.27;7.73;;;;;;;-0.45;95.39;100605.34;126609;1086;104190;-72
2023/12/11 05:34:51;;;;;;;19.10;6.97;;;;;;;-0.45;95.68;100609.58;125990;1086;104286;-72
2023/12/11 05:37:20;;;;;;;20.33;7.80;;;;;;;-0.42;95.90;100612.41;126538;1086;102097;-73
2023/12/11 05:39:49;;;;;;;20.67;8.50;;;;;;;-0.35;95.64;100611.25;126454;1086;104238;-73
2023/12/11 05:42:18;;;;;;;21.13;8.27;;;;;;;-0.33;95.91;100618.31;126486;1086;104148;-73
2023/12/11 05:44:47;;;;;;;19.20;7.80;;;;;;;-0.31;95.50;100621.02;126141;1086;104382;-75
2023/12/11 05:47:16;;;;;;;21.97;8.33;;;;;;;-0.29;95.75;100622.06;126359;1086;102024;-73
2023/12/11 05:49:45;;;;;;;22.57;8.70;;;;;;;-0.28;95.53;100614.45;126461;1085;104171;-75
2023/12/11 05:52:14;;;;;;;22.73;8.50;;;;;;;-0.27;95.68;100605.02;126358;1086;104165;-74
2023/12/11 05:54:43;;;;;;;24.93;10.47;;;;;;;-0.28;95.61;100611.88;126160;1086;101904;-74
2023/12/11 05:57:12;;;;;;;22.60;8.80;;;;;;;-0.26;95.70;100602.57;126528;1086;104203;-74
2023/12/11 05:59:41;;;;;;;22.73;9.53;;;;;;;-0.22;96.23;100608.86;126214;1086;101794;-75
2023/12/11 06:02:10;;;;;;;23.27;9.10;;;;;;;-0.18;96.08;100603.19;126626;1086;101909;-74
2023/12/11 06:04:41;;;;;;;22.40;8.77;;;;;;;-0.14;96.20;100601.73;126317;1086;104193;-75
2023/12/11 06:07:10;;;;;;;21.43;9.10;;;;;;;-0.09;95.49;100590.13;126346;1086;104187;-74
2023/12/11 06:09:39;;;;;;;23.97;9.67;;;;;;;-0.07;95.68;100594.62;127432;1086;104178;-75
2023/12/11 06:12:09;;;;;;;23.73;9.13;;;;;;;-0.06;95.30;100591.27;127211;1086;101970;-74
2023/12/11 06:14:49;;;;;;;25.80;9.70;;;;;;;-0.09;95.32;100587.55;126795;1086;104165;-74
2023/12/11 06:17:20;;;;;;;24.27;9.07;;;;;;;-0.07;95.38;100585.98;126827;1086;104226;-74
2023/12/11 06:19:49;;;;;;;23.73;9.13;;;;;;;-0.06;95.18;100593.84;127193;1086;101751;-75
2023/12/11 06:22:18;;;;;;;23.57;8.27;;;;;;;-0.04;95.62;100597.44;126355;1086;104207;-73
2023/12/11 06:24:47;;;;;;;22.00;9.43;;;;;;;-0.03;95.75;100599.25;126982;1086;102238;-74
2023/12/11 06:27:16;;;;;;;25.63;8.87;;;;;;;-0.02;95.15;100603.64;127542;1085;102147;-72
2023/12/11 06:30:02;;;;;;;23.83;9.80;;;;;;;0.00;95.01;100601.19;126573;1086;104220;-74
2023/12/11 06:32:37;;;;;;;22.93;8.63;;;;;;;0.03;95.51;100587.61;128104;1086;102374;-73
2023/12/11 06:35:08;;;;;;;25.53;9.87;;;;;;;0.05;95.65;100589.54;127328;1086;104162;-75
2023/12/11 06:37:37;;;;;;;24.53;9.77;;;;;;;0.08;95.70;100589.78;128091;1086;104204;-74
2023/12/11 06:40:09;;;;;;;24.20;10.30;;;;;;;0.12;95.68;100589.22;126503;1086;102211;-73
2023/12/11 06:42:39;;;;;;;24.90;9.73;;;;;;;0.14;95.58;100591.92;126990;1086;102058;-73
2023/12/11 06:45:12;;;;;;;26.57;10.20;;;;;;;0.07;95.12;100592.23;128949;1085;101430;-76
2023/12/11 06:47:41;;;;;;;28.98;10.72;;;;;;;0.03;94.97;100598.81;127443;1086;104225;-74
2023/12/11 06:50:13;;;;;;;26.87;10.37;;;;;;;0.03;95.31;100605.66;128660;1085;102407;-75
2023/12/11 06:52:42;;;;;;;25.60;9.93;;;;;;;0.05;95.23;100609.25;128075;1085;101780;-77
2023/12/11 06:55:15;;;;;;;24.37;10.03;;;;;;;0.05;95.56;100612.76;127503;1086;104159;-75
2023/12/11 06:57:45;;;;;;;23.53;9.70;;;;;;;0.09;95.17;100616.47;126782;1086;104179;-76
2023/12/11 07:00:16;;;;;;;26.90;10.20;;;;;;;0.10;95.43;100616.59;126628;1089;105799;-75
2023/12/11 07:02:45;;;;;;;25.27;10.10;;;;;;;0.14;95.31;100610.91;127738;1086;101890;-74
2023/12/11 07:05:14;;;;;;;26.13;10.40;;;;;;;0.20;95.86;100613.05;127943;1086;101995;-74
2023/12/11 07:07:46;;;;;;;24.73;10.33;;;;;;;0.26;95.73;100616.11;126098;1086;101903;-77
2023/12/11 07:10:15;;;;;;;25.77;10.90;;;;;;;0.23;95.25;100613.29;126428;1089;102440;-77
2023/12/11 07:12:49;;;;;;;27.80;10.60;;;;;;;0.23;95.25;100612.41;126539;1089;104338;-76
2023/12/11 07:15:19;;;;;;;25.10;10.25;;;;;;;0.22;95.49;100619.26;127975;1085;104238;-75
2023/12/11 07:17:50;;;;;;;28.70;11.37;;;;;;;0.21;95.54;100617.44;127411;1085;104059;-76
2023/12/11 07:20:19;;;;;;;29.47;11.43;;;;;;;0.20;95.24;100623.37;127965;1086;102014;-75
2023/12/11 07:23:01;;;;;;;27.83;11.60;;;;;;;0.21;95.27;100617.44;127655;1086;101977;-74
2023/12/11 07:25:30;;;;;;;27.80;11.47;;;;;;;0.25;95.40;100609.17;127698;1086;102304;-75
2023/12/11 07:27:59;;;;;;;28.10;11.40;;;;;;;0.26;95.27;100610.95;126559;1086;104204;-75
2023/12/11 07:30:31;;;;;;;28.33;10.93;;;;;;;0.28;95.36;100611.07;127815;1086;104138;-76
2023/12/11 07:33:24;;;;;;;27.20;11.07;;;;;;;0.30;95.67;100612.12;128415;1085;102099;-79
2023/12/11 07:51:23;;;;;;;23.33;8.97;;;;;;;0.42;94.92;100604.41;127199;1089;103049;-75
2023/12/11 07:53:54;;;;;;;24.43;9.57;;;;;;;0.44;94.79;100601.17;126006;1086;104146;-75
2023/12/11 07:56:29;;;;;;;23.07;9.30;;;;;;;0.46;94.70;100611.62;126013;1086;101954;-76
2023/12/11 07:58:59;;;;;;;22.23;8.93;;;;;;;0.45;94.71;100618.48;125948;1090;101928;-75
2023/12/11 08:01:31;;;;;;;22.20;8.50;;;;;;;0.46;94.64;100621.95;125983;1086;104297;-77
2023/12/11 08:04:01;;;;;;;25.63;10.20;;;;;;;0.45;94.97;100620.14;126036;1086;104153;-74
2023/12/11 08:06:31;;;;;;;23.07;9.50;;;;;;;0.46;94.90;100620.26;125982;1086;104159;-76
2023/12/11 08:09:01;;;;;;;22.87;8.73;;;;;;;0.49;94.79;100617.91;127239;1086;102308;-75
2023/12/11 08:11:30;;;;;;;26.20;8.80;;;;;;;0.49;94.66;100611.86;126062;1086;101931;-75
2023/12/11 08:14:13;;;;;;;25.33;9.10;;;;;;;0.49;94.79;100610.16;126211;1086;104085;-77
2023/12/11 08:16:43;;;;;;;24.23;9.03;;;;;;;0.54;95.01;100611.41;127460;1085;104257;-75
2023/12/11 08:19:18;;;;;;;22.80;9.23;;;;;;;0.56;94.73;100606.37;126337;1086;104226;-78
2023/12/11 08:21:47;;;;;;;24.43;8.73;;;;;;;0.61;94.97;100589.56;127396;1085;104184;-74
2023/12/11 08:24:23;;;;;;;25.17;9.30;;;;;;;0.64;95.09;100589.80;126095;1085;102003;-75
2023/12/11 08:27:00;;;;;;;24.87;9.70;;;;;;;0.67;94.92;100579.70;126433;1086;101989;-73
2023/12/11 08:29:36;;;;;;;26.40;10.67;;;;;;;0.66;94.70;100572.73;126095;1086;102062;-76
2023/12/11 08:32:07;;;;;;;26.87;10.57;;;;;;;0.66;94.58;100572.73;127224;1086;104152;-76
2023/12/11 08:34:45;;;;;;;25.53;9.53;;;;;;;0.69;94.46;100562.63;126571;1086;118619;-74
2023/12/11 08:37:15;;;;;;;27.67;9.97;;;;;;;0.67;94.76;100563.28;126101;1086;104267;-73
2023/12/11 08:39:44;;;;;;;25.67;10.73;;;;;;;0.69;95.27;100567.80;126037;1086;101892;-75
2023/12/11 08:42:13;;;;;;;26.00;10.33;;;;;;;0.73;95.08;100562.87;126263;1089;102820;-74
2023/12/11 08:44:43;;;;;;;26.60;9.83;;;;;;;0.79;95.33;100561.64;126455;1086;104184;-74
2023/12/11 08:47:13;;;;;;;27.13;10.53;;;;;;;0.86;95.41;100565.61;127541;1089;104277;-75
2023/12/11 08:49:45;;;;;;;25.30;9.53;;;;;;;0.87;95.24;100557.05;127832;1085;101906;-76
2023/12/11 08:52:14;;;;;;;25.87;9.73;;;;;;;0.87;94.57;100549.30;127751;1086;104226;-75
2023/12/11 08:54:45;;;;;;;26.13;10.30;;;;;;;0.88;94.98;100539.08;126981;1086;104238;-77
2023/12/11 08:57:14;;;;;;;27.30;10.97;;;;;;;0.90;94.60;100541.78;127048;1086;101906;-79
2023/12/11 08:59:45;;;;;;;26.93;10.43;;;;;;;0.91;94.73;100540.11;127793;1086;101846;-77
2023/12/11 09:02:14;;;;;;;28.37;9.87;;;;;;;0.92;94.83;100529.89;127777;1085;104261;-80
2023/12/11 09:04:51;;;;;;;27.73;10.73;;;;;;;0.91;94.37;100534.95;127218;1089;104092;-77
2023/12/11 09:07:20;;;;;;;27.75;10.35;;;;;;;0.86;94.27;100530.33;126796;1086;101990;-75
2023/12/11 09:09:55;;;;;;;25.33;9.43;;;;;;;0.86;94.27;100534.60;127236;1086;101816;-74
2023/12/11 09:12:24;;;;;;;27.63;10.27;;;;;;;0.88;94.67;100531.33;126616;1086;104204;-75
2023/12/11 09:14:54;;;;;;;27.50;9.80;;;;;;;0.88;94.71;100527.86;125977;1088;104226;-74
2023/12/11 09:17:23;;;;;;;24.67;9.53;;;;;;;0.83;94.80;100527.52;126524;1086;104187;-74
2023/12/11 09:19:53;;;;;;;23.20;8.80;;;;;;;0.81;94.59;100521.34;126610;1086;101829;-76
2023/12/11 09:22:22;;;;;;;28.00;10.50;;;;;;;0.75;94.41;100527.70;127852;1085;101932;-76
2023/12/11 09:24:55;;;;;;;26.63;10.30;;;;;;;0.76;94.78;100511.44;127744;1085;102160;-76
2023/12/11 09:27:26;;;;;;;26.87;10.10;;;;;;;0.81;94.56;100521.34;126695;1090;101916;-78
2023/12/11 09:29:55;;;;;;;25.73;9.83;;;;;;;0.84;94.99;100515.48;127691;1085;104193;-79
2023/12/11 09:32:25;;;;;;;25.40;9.47;;;;;;;0.89;95.11;100509.88;126239;1086;104228;-76
2023/12/11 09:34:58;;;;;;;24.73;9.67;;;;;;;0.94;95.46;100511.92;126473;1086;102016;-80
2023/12/11 09:37:30;;;;;;;26.63;9.60;;;;;;;0.99;95.32;100513.16;127428;1086;102191;-77
2023/12/11 09:40:06;;;;;;;23.87;8.97;;;;;;;1.05;95.39;100516.19;126123;1086;104344;-77
2023/12/11 09:42:41;;;;;;;26.87;10.57;;;;;;;1.06;94.70;100505.05;126171;1086;104312;-75
2023/12/11 09:45:12;;;;;;;25.10;9.30;;;;;;;1.08;94.44;100506.97;126071;1086;102081;-74
2023/12/11 09:47:53;;;;;;;25.33;10.03;;;;;;;1.11;94.91;100500.22;126081;1086;102341;-75
2023/12/11 09:50:25;;;;;;;27.33;10.30;;;;;;;1.07;94.57;100507.74;126132;1090;104183;-75
2023/12/11 09:53:25;;;;;;;29.47;11.47;;;;;;;1.10;94.99;100512.25;126556;1086;104255;-75
2023/12/11 09:55:58;;;;;;;31.07;11.13;;;;;;;1.16;94.99;100515.28;127276;1089;101969;-77
2023/12/11 09:58:31;;;;;;;30.15;11.53;;;;;;;1.18;94.89;100513.70;127804;1084;102096;-74
2023/12/11 10:01:15;;;;;;;28.43;10.77;;;;;;;1.20;95.09;100521.56;127099;1086;104619;-76
2023/12/11 10:03:49;;;;;;;31.90;11.95;;;;;;;1.22;94.87;100520.91;126439;1086;104238;-76
2023/12/11 10:06:24;;;;;;;30.80;12.23;;;;;;;1.25;95.07;100521.13;128043;1085;101794;-76
2023/12/11 10:08:55;;;;;;;32.07;12.03;;;;;;;1.29;94.67;100514.48;128731;1085;101708;-76
2023/12/11 10:11:26;;;;;;;33.20;12.50;;;;;;;1.31;94.96;100518.11;126915;1086;104232;-77
2023/12/11 10:13:55;;;;;;;27.87;10.90;;;;;;;1.34;94.84;100514.82;126890;1086;104268;-78
2023/12/11 10:16:37;;;;;;;32.00;11.07;;;;;;;1.33;94.08;100506.17;127233;1089;102062;-75
2023/12/11 10:19:06;;;;;;;31.80;11.67;;;;;;;1.34;94.83;100502.81;126759;1086;101996;-74
2023/12/11 10:21:43;;;;;;;31.50;12.97;;;;;;;1.39;94.77;100505.73;126532;1086;104231;-77
2023/12/11 10:24:20;;;;;;;29.57;11.03;;;;;;;1.42;94.60;100508.55;127782;1086;104270;-75
2023/12/11 10:26:56;;;;;;;32.90;12.47;;;;;;;1.47;94.28;100502.00;126651;1086;102325;-74
2023/12/11 10:29:31;;;;;;;34.57;13.00;;;;;;;1.50;94.53;100507.40;127433;1086;101993;-77
2023/12/11 10:32:07;;;;;;;33.70;12.97;;;;;;;1.54;94.56;100508.51;128391;1086;102207;-77
2023/12/11 10:34:42;;;;;;;;;;;;;;;1.57;95.07;100504.47;128097;1085;101843;-77
2023/12/11 10:37:13;;;;;;;35.27;13.23;;;;;;;1.57;94.72;100501.89;127495;1085;110886;-76
2023/12/11 10:39:53;;;;;;;33.63;13.40;;;;;;;1.58;94.44;100495.91;126275;1086;104260;-76
2023/12/11 10:42:26;;;;;;;38.00;13.73;;;;;;;1.54;94.56;100490.41;128073;1085;102076;-76
2023/12/11 10:44:58;;;;;;;38.40;14.25;;;;;;;1.53;94.38;100484.34;126579;1086;104305;-73
2023/12/11 10:47:35;;;;;;;45.37;16.43;;;;;;;1.50;94.42;100475.48;126207;1086;104234;-75
2023/12/11 10:50:08;;;;;;;40.80;15.20;;;;;;;1.48;94.37;100474.45;126635;1083;104238;-78
2023/12/11 10:52:41;;;;;;;38.07;14.40;;;;;;;1.48;94.32;100466.69;127394;1086;104310;-79
2023/12/11 10:55:11;;;;;;;41.30;15.00;;;;;;;1.52;94.37;100471.30;126491;1089;103068;-79
2023/12/11 10:57:42;;;;;;;40.10;15.50;;;;;;;1.54;94.40;100473.22;127858;1085;106916;-80
2023/12/11 11:00:17;;;;;;;42.67;15.00;;;;;;;1.53;94.53;100478.28;128085;1085;102302;-79
2023/12/11 11:02:54;;;;;;;39.67;16.00;;;;;;;1.51;94.17;100473.00;128589;1085;104260;-80
2023/12/11 11:05:33;;;;;;;42.17;16.53;;;;;;;1.52;94.56;100479.95;128897;1086;101682;-78
2023/12/11 11:08:19;;;;;;;43.17;16.33;;;;;;;1.53;94.40;100478.28;127853;1086;118588;-77
2023/12/11 11:10:57;;;;;;;40.57;16.00;;;;;;;1.52;94.51;100477.36;126983;1086;104337;-74
2023/12/11 11:13:38;;;;;;;44.45;15.65;;;;;;;1.48;94.30;100482.20;126017;1089;102843;-74
2023/12/11 11:16:09;;;;;;;43.23;16.37;;;;;;;1.47;94.25;100485.60;126059;1086;104168;-73
2023/12/11 11:19:07;;;;;;;41.57;17.70;;;;;;;1.45;94.20;100475.15;126405;1086;102062;-73
2023/12/11 11:21:37;;;;;;;47.07;17.60;;;;;;;1.42;94.36;100468.06;126489;1086;104283;-75
2023/12/11 11:24:26;;;;;;;47.53;18.40;;;;;;;1.41;94.71;100466.25;126434;1086;104171;-75
2023/12/11 11:26:56;;;;;;;49.27;19.00;;;;;;;1.40;94.72;100458.38;126916;1086;101956;-75
2023/12/11 11:29:41;;;;;;;50.43;19.77;;;;;;;1.39;94.36;100459.19;126064;1086;104305;-74
2023/12/11 11:33:04;;;;;;;51.10;18.53;;;;;;;1.35;94.82;100455.47;126452;1086;104264;-74
2023/12/11 11:35:56;;;;;;;49.70;18.03;;;;;;;1.32;94.79;100452.66;126272;1086;104226;-73